Time,TemperatureF,DewpointF,PressureIn,WindDirection,WindDirectionDegrees,WindSpeedMPH,WindSpeedGustMPH,Humidity,HourlyPrecipIn,Conditions,Clouds,dailyrainin,SoftwareType,DateUTC
2013-01-10 00:14:00,41.9,26.9,29.81,West,270,7.4,-999.0,55,-99.99,,,0.00,Acu-Link.com,2013-01-10 05:14:00,
2013-01-10 00:29:00,41.7,27.2,29.81,WNW,292,9.4,-999.0,56,-99.99,,,0.00,Acu-Link.com,2013-01-10 05:29:00,
2013-01-10 00:44:00,41.7,27.2,29.82,NNW,337,8.9,-999.0,56,-99.99,,,0.00,Acu-Link.com,2013-01-10 05:44:00,
2013-01-10 01:00:00,41.7,27.2,29.82,WNW,292,6.3,-999.0,56,-99.99,,,0.00,Acu-Link.com,2013-01-10 06:00:00,
2013-01-10 01:15:00,41.5,27.5,29.83,South,180,6.7,-999.0,57,-99.99,,,0.00,Acu-Link.com,2013-01-10 06:15:00,
2013-01-10 01:30:00,41.5,28.7,29.84,North,0,9.4,-999.0,60,-99.99,,,0.00,Acu-Link.com,2013-01-10 06:30:00,
2013-01-10 01:45:00,40.3,29.1,29.85,West,270,5.8,-999.0,64,-99.99,,,0.00,Acu-Link.com,2013-01-10 06:45:00,
2013-01-10 02:00:00,39.9,28.7,29.87,WNW,292,7.8,-999.0,64,-99.99,,,0.00,Acu-Link.com,2013-01-10 07:00:00,
2013-01-10 02:16:00,39.0,29.0,29.88,WNW,292,5.1,-999.0,67,-99.99,,,0.00,Acu-Link.com,2013-01-10 07:16:00,
2013-01-10 02:31:00,39.0,28.6,29.88,WSW,247,3.8,-999.0,66,-99.99,,,0.00,Acu-Link.com,2013-01-10 07:31:00,
2013-01-10 02:46:00,38.5,28.5,29.88,NW,315,1.1,-999.0,67,-99.99,,,0.00,Acu-Link.com,2013-01-10 07:46:00,
2013-01-10 03:01:00,38.5,28.1,29.89,West,270,3.8,-999.0,66,-99.99,,,0.00,Acu-Link.com,2013-01-10 08:01:00,
2013-01-10 03:16:00,39.2,27.3,29.89,NW,315,7.4,-999.0,62,-99.99,,,0.00,Acu-Link.com,2013-01-10 08:16:00,
2013-01-10 03:31:00,39.2,26.1,29.90,ESE,112,2.2,-999.0,59,-99.99,,,0.00,Acu-Link.com,2013-01-10 08:31:00,
2013-01-10 03:47:00,39.6,25.6,29.90,WNW,292,7.8,-999.0,57,-99.99,,,0.00,Acu-Link.com,2013-01-10 08:47:00,
2013-01-10 04:09:00,39.6,25.6,29.93,NNW,337,5.1,-999.0,57,-99.99,,,0.00,Acu-Link.com,2013-01-10 09:09:00,
2013-01-10 04:24:00,39.2,25.3,29.93,NE,45,3.1,-999.0,57,-99.99,,,0.00,Acu-Link.com,2013-01-10 09:24:00,
2013-01-10 04:39:00,38.5,25.0,29.95,NNW,337,4.3,-999.0,58,-99.99,,,0.00,Acu-Link.com,2013-01-10 09:39:00,
2013-01-10 04:54:00,38.8,24.1,29.95,West,270,3.8,-999.0,55,-99.99,,,0.00,Acu-Link.com,2013-01-10 09:54:00,
2013-01-10 05:09:00,38.7,23.9,29.96,NNW,337,2.7,-999.0,55,-99.99,,,0.00,Acu-Link.com,2013-01-10 10:09:00,
2013-01-10 05:25:00,38.1,23.4,29.99,NW,315,5.8,-999.0,55,-99.99,,,0.00,Acu-Link.com,2013-01-10 10:25:00,
2013-01-10 05:40:00,37.8,23.1,30.00,South,180,4.3,-999.0,55,-99.99,,,0.00,Acu-Link.com,2013-01-10 10:40:00,
2013-01-10 05:55:00,37.6,22.9,30.02,NNW,337,1.6,-999.0,55,-99.99,,,0.00,Acu-Link.com,2013-01-10 10:55:00,
2013-01-10 06:10:00,36.9,22.7,30.02,NW,315,3.8,-999.0,56,-99.99,,,0.00,Acu-Link.com,2013-01-10 11:10:00,
2013-01-10 06:26:00,36.5,22.7,30.04,SSW,202,3.1,-999.0,57,-99.99,,,0.00,Acu-Link.com,2013-01-10 11:26:00,
2013-01-10 06:41:00,36.7,22.9,30.05,WNW,292,3.1,-999.0,57,-99.99,,,0.00,Acu-Link.com,2013-01-10 11:41:00,
2013-01-10 06:56:00,36.0,22.6,30.05,SSW,202,4.7,-999.0,58,-99.99,,,0.00,Acu-Link.com,2013-01-10 11:56:00,
2013-01-10 07:11:00,35.1,23.0,30.07,West,270,1.6,-999.0,61,-99.99,,,0.00,Acu-Link.com,2013-01-10 12:11:00,
2013-01-10 07:26:00,35.1,23.0,30.07,WNW,292,3.8,-999.0,61,-99.99,,,0.00,Acu-Link.com,2013-01-10 12:26:00,
2013-01-10 07:42:00,36.1,23.2,30.08,WNW,292,4.7,-999.0,59,-99.99,,,0.00,Acu-Link.com,2013-01-10 12:42:00,
2013-01-10 07:57:00,36.7,23.7,30.08,WNW,292,3.8,-999.0,59,-99.99,,,0.00,Acu-Link.com,2013-01-10 12:57:00,
2013-01-10 08:12:00,37.2,23.8,30.09,NW,315,4.3,-999.0,58,-99.99,,,0.00,Acu-Link.com,2013-01-10 13:12:00,
2013-01-10 08:27:00,37.9,24.1,30.10,WNW,292,3.1,-999.0,57,-99.99,,,0.00,Acu-Link.com,2013-01-10 13:27:00,
2013-01-10 08:42:00,38.1,23.8,30.11,NE,45,2.7,-999.0,56,-99.99,,,0.00,Acu-Link.com,2013-01-10 13:42:00,
2013-01-10 08:58:00,38.8,23.6,30.10,WNW,292,5.1,-999.0,54,-99.99,,,0.00,Acu-Link.com,2013-01-10 13:58:00,
2013-01-10 09:13:00,39.2,24.0,30.12,NNE,22,4.3,-999.0,54,-99.99,,,0.00,Acu-Link.com,2013-01-10 14:13:00,
2013-01-10 09:28:00,40.1,23.9,30.11,WNW,292,5.8,-999.0,52,-99.99,,,0.00,Acu-Link.com,2013-01-10 14:28:00,
2013-01-10 09:43:00,40.1,23.9,30.11,NW,315,4.7,-999.0,52,-99.99,,,0.00,Acu-Link.com,2013-01-10 14:43:00,
2013-01-10 09:58:00,40.8,23.6,30.11,West,270,3.1,-999.0,50,-99.99,,,0.00,Acu-Link.com,2013-01-10 14:58:00,
2013-01-10 10:14:00,40.8,24.1,30.14,WNW,292,9.4,-999.0,51,-99.99,,,0.00,Acu-Link.com,2013-01-10 15:14:00,
2013-01-10 10:29:00,40.8,24.1,30.14,NE,45,3.1,-999.0,51,-99.99,,,0.00,Acu-Link.com,2013-01-10 15:29:00,
2013-01-10 10:44:00,41.2,24.0,30.14,East,90,6.7,-999.0,50,-99.99,,,0.00,Acu-Link.com,2013-01-10 15:44:00,
2013-01-10 10:59:00,41.5,23.3,30.14,NW,315,4.7,-999.0,48,-99.99,,,0.00,Acu-Link.com,2013-01-10 15:59:00,
2013-01-10 11:14:00,41.5,23.3,30.14,WNW,292,9.4,-999.0,48,-99.99,,,0.00,Acu-Link.com,2013-01-10 16:14:00,
2013-01-10 11:30:00,42.3,23.5,30.13,ESE,112,4.7,-999.0,47,-99.99,,,0.00,Acu-Link.com,2013-01-10 16:30:00,
2013-01-10 11:45:00,42.4,23.7,30.13,North,0,5.8,-999.0,47,-99.99,,,0.00,Acu-Link.com,2013-01-10 16:45:00,
2013-01-10 12:00:00,42.8,23.5,30.11,NW,315,4.7,-999.0,46,-99.99,,,0.00,Acu-Link.com,2013-01-10 17:00:00,
2013-01-10 12:15:00,43.0,23.6,30.11,NW,315,8.3,-999.0,46,-99.99,,,0.00,Acu-Link.com,2013-01-10 17:15:00,
2013-01-10 12:31:00,43.3,24.0,30.12,WSW,247,6.7,-999.0,46,-99.99,,,0.00,Acu-Link.com,2013-01-10 17:31:00,
2013-01-10 12:46:00,43.0,23.1,30.11,NW,315,6.3,-999.0,45,-99.99,,,0.00,Acu-Link.com,2013-01-10 17:46:00,
2013-01-10 13:01:00,42.8,24.5,30.12,East,90,4.7,-999.0,48,-99.99,,,0.00,Acu-Link.com,2013-01-10 18:01:00,
2013-01-10 13:16:00,42.6,23.8,30.13,NNW,337,5.8,-999.0,47,-99.99,,,0.00,Acu-Link.com,2013-01-10 18:16:00,
2013-01-10 13:31:00,42.6,23.8,30.13,SSE,157,3.1,-999.0,47,-99.99,,,0.00,Acu-Link.com,2013-01-10 18:31:00,
2013-01-10 13:47:00,43.0,23.6,30.13,NW,315,2.7,-999.0,46,-99.99,,,0.00,Acu-Link.com,2013-01-10 18:47:00,
2013-01-10 14:02:00,43.3,23.4,30.15,NW,315,6.3,-999.0,45,-99.99,,,0.00,Acu-Link.com,2013-01-10 19:02:00,
2013-01-10 14:17:00,43.0,23.6,30.16,NW,315,3.8,-999.0,46,-99.99,,,0.00,Acu-Link.com,2013-01-10 19:17:00,
2013-01-10 14:32:00,43.2,24.3,30.16,NNW,337,2.2,-999.0,47,-99.99,,,0.00,Acu-Link.com,2013-01-10 19:32:00,
2013-01-10 14:47:00,43.0,23.1,30.17,NW,315,9.4,-999.0,45,-99.99,,,0.00,Acu-Link.com,2013-01-10 19:47:00,
2013-01-10 15:03:00,42.6,23.3,30.18,NNW,337,5.8,-999.0,46,-99.99,,,0.00,Acu-Link.com,2013-01-10 20:03:00,
2013-01-10 15:18:00,42.4,23.1,30.17,NNW,337,6.7,-999.0,46,-99.99,,,0.00,Acu-Link.com,2013-01-10 20:18:00,
2013-01-10 15:33:00,42.3,23.5,30.18,NW,315,6.7,-999.0,47,-99.99,,,0.00,Acu-Link.com,2013-01-10 20:33:00,
2013-01-10 15:48:00,41.5,23.3,30.19,North,0,3.8,-999.0,48,-99.99,,,0.00,Acu-Link.com,2013-01-10 20:48:00,
2013-01-10 16:03:00,40.8,23.2,30.19,NNW,337,2.7,-999.0,49,-99.99,,,0.00,Acu-Link.com,2013-01-10 21:03:00,
2013-01-10 16:19:00,40.3,23.6,30.20,West,270,2.7,-999.0,51,-99.99,,,0.00,Acu-Link.com,2013-01-10 21:19:00,
2013-01-10 16:34:00,39.9,23.3,30.21,NE,45,1.6,-999.0,51,-99.99,,,0.00,Acu-Link.com,2013-01-10 21:34:00,
2013-01-10 16:49:00,39.0,23.4,30.23,NW,315,3.1,-999.0,53,-99.99,,,0.00,Acu-Link.com,2013-01-10 21:49:00,
2013-01-10 17:04:00,38.7,23.9,30.22,North,0,2.7,-999.0,55,-99.99,,,0.00,Acu-Link.com,2013-01-10 22:04:00,
2013-01-10 17:20:00,37.9,23.7,30.23,NW,315,3.8,-999.0,56,-99.99,,,0.00,Acu-Link.com,2013-01-10 22:20:00,
2013-01-10 17:35:00,37.8,23.1,30.23,West,270,1.1,-999.0,55,-99.99,,,0.00,Acu-Link.com,2013-01-10 22:35:00,
2013-01-10 17:50:00,36.5,23.1,30.24,NNW,337,1.1,-999.0,58,-99.99,,,0.00,Acu-Link.com,2013-01-10 22:50:00,
2013-01-10 18:05:00,36.0,23.0,30.23,SW,225,2.7,-999.0,59,-99.99,,,0.00,Acu-Link.com,2013-01-10 23:05:00,
2013-01-10 18:20:00,36.5,23.1,30.25,NNW,337,4.3,-999.0,58,-99.99,,,0.00,Acu-Link.com,2013-01-10 23:20:00,
2013-01-10 18:36:00,36.7,23.3,30.24,NNW,337,4.3,-999.0,58,-99.99,,,0.00,Acu-Link.com,2013-01-10 23:36:00,
2013-01-10 18:51:00,35.8,23.3,30.25,WNW,292,2.7,-999.0,60,-99.99,,,0.00,Acu-Link.com,2013-01-10 23:51:00,
2013-01-10 19:06:00,35.2,23.2,30.25,NW,315,1.6,-999.0,61,-99.99,,,0.00,Acu-Link.com,2013-01-11 00:06:00,
2013-01-10 19:21:00,34.9,23.2,30.25,ESE,112,1.1,-999.0,62,-99.99,,,0.00,Acu-Link.com,2013-01-11 00:21:00,
2013-01-10 19:36:00,34.7,23.4,30.27,WNW,292,2.7,-999.0,63,-99.99,,,0.00,Acu-Link.com,2013-01-11 00:36:00,
2013-01-10 19:52:00,34.0,23.1,30.27,ENE,67,0.0,-999.0,64,-99.99,,,0.00,Acu-Link.com,2013-01-11 00:52:00,
2013-01-10 20:07:00,33.1,22.6,30.28,West,270,2.2,-999.0,65,-99.99,,,0.00,Acu-Link.com,2013-01-11 01:07:00,
2013-01-10 20:22:00,33.1,23.0,30.28,WNW,292,0.0,-999.0,66,-99.99,,,0.00,Acu-Link.com,2013-01-11 01:22:00,
2013-01-10 20:37:00,32.9,22.8,30.29,WNW,292,3.8,-999.0,66,-99.99,,,0.00,Acu-Link.com,2013-01-11 01:37:00,
2013-01-10 20:53:00,33.6,23.1,30.30,WNW,292,2.7,-999.0,65,-99.99,,,0.00,Acu-Link.com,2013-01-11 01:53:00,
2013-01-10 21:08:00,33.6,23.5,30.30,NW,315,4.3,-999.0,66,-99.99,,,0.00,Acu-Link.com,2013-01-11 02:08:00,
2013-01-10 21:23:00,33.3,23.5,30.30,West,270,1.6,-999.0,67,-99.99,,,0.00,Acu-Link.com,2013-01-11 02:23:00,
2013-01-10 21:38:00,32.9,23.2,30.31,WNW,292,4.3,-999.0,67,-99.99,,,0.00,Acu-Link.com,2013-01-11 02:38:00,
2013-01-10 21:53:00,32.9,23.2,30.30,NW,315,2.7,-999.0,67,-99.99,,,0.00,Acu-Link.com,2013-01-11 02:53:00,
2013-01-10 22:09:00,32.5,23.2,30.31,NW,315,4.3,-999.0,68,-99.99,,,0.00,Acu-Link.com,2013-01-11 03:09:00,
2013-01-10 22:24:00,32.4,23.3,30.31,WNW,292,2.7,-999.0,69,-99.99,,,0.00,Acu-Link.com,2013-01-11 03:24:00,
2013-01-10 22:39:00,32.4,23.0,30.31,NNW,337,2.7,-999.0,68,-99.99,,,0.00,Acu-Link.com,2013-01-11 03:39:00,
2013-01-10 22:54:00,32.0,22.7,30.30,NE,45,1.6,-999.0,68,-99.99,,,0.00,Acu-Link.com,2013-01-11 03:54:00,
2013-01-10 23:09:00,31.1,23.1,30.31,WNW,292,2.7,-999.0,72,-99.99,,,0.00,Acu-Link.com,2013-01-11 04:09:00,
2013-01-10 23:25:00,30.7,23.1,30.31,NNW,337,2.7,-999.0,73,-99.99,,,0.00,Acu-Link.com,2013-01-11 04:25:00,
2013-01-10 23:40:00,30.4,22.8,30.31,NNW,337,2.2,-999.0,73,-99.99,,,0.00,Acu-Link.com,2013-01-11 04:40:00,
2013-01-10 23:55:00,30.2,22.6,30.31,WNW,292,2.7,-999.0,73,-99.99,,,0.00,Acu-Link.com,2013-01-11 04:55:00,